createdAt,value
2023-05-23T00:01:16.680Z,16.10
2023-05-23T00:03:43.519Z,15.43
2023-05-23T00:06:10.194Z,17.37
2023-05-23T00:08:36.718Z,16.97
2023-05-23T00:11:03.261Z,19.00
2023-05-23T00:13:29.829Z,14.70
2023-05-23T00:15:56.378Z,13.83
2023-05-23T00:18:22.985Z,14.43
2023-05-23T00:20:49.496Z,15.77
2023-05-23T00:23:16.018Z,16.53
2023-05-23T00:25:42.723Z,15.00
2023-05-23T00:28:10.436Z,16.87
2023-05-23T00:30:36.955Z,16.50
2023-05-23T00:33:03.580Z,13.93
2023-05-23T00:35:30.212Z,14.60
2023-05-23T00:37:56.816Z,14.67
2023-05-23T00:40:25.963Z,15.93
2023-05-23T00:42:52.541Z,15.77
2023-05-23T00:45:19.247Z,16.63
2023-05-23T00:47:47.112Z,17.17
2023-05-23T00:50:14.399Z,16.27
2023-05-23T00:52:41.954Z,16.17
2023-05-23T00:55:09.099Z,19.80
2023-05-23T00:57:36.424Z,15.30
2023-05-23T01:00:03.111Z,15.33
2023-05-23T01:02:32.301Z,15.10
2023-05-23T01:04:59.306Z,12.90
2023-05-23T01:07:25.815Z,13.33
2023-05-23T01:09:52.492Z,13.97
2023-05-23T01:12:56.343Z,12.23
2023-05-23T01:15:27.188Z,11.47
2023-05-23T01:18:15.984Z,13.57
2023-05-23T01:20:57.212Z,12.80
2023-05-23T01:23:54.705Z,15.03
2023-05-23T01:27:08.656Z,12.17
2023-05-23T01:29:39.053Z,13.27
2023-05-23T01:32:11.071Z,13.97
2023-05-23T01:34:38.481Z,14.77
2023-05-23T01:37:10.886Z,13.97
2023-05-23T01:39:38.119Z,14.73
2023-05-23T01:42:05.074Z,14.70
2023-05-23T01:44:32.977Z,13.03
2023-05-23T01:46:59.541Z,16.10
2023-05-23T01:49:27.987Z,17.23
2023-05-23T01:51:54.619Z,14.37
2023-05-23T01:54:21.204Z,15.73
2023-05-23T01:56:48.413Z,15.93
2023-05-23T01:59:15.099Z,16.20
2023-05-23T02:01:41.957Z,17.40
2023-05-23T02:04:09.165Z,15.97
2023-05-23T02:06:35.717Z,16.57
2023-05-23T02:09:02.244Z,15.53
2023-05-23T02:11:28.773Z,18.33
2023-05-23T02:13:57.085Z,17.00
2023-05-23T02:16:23.662Z,16.10
2023-05-23T02:18:50.280Z,16.53
2023-05-23T02:21:16.782Z,16.37
2023-05-23T02:23:43.406Z,17.43
2023-05-23T02:26:09.933Z,18.60
2023-05-23T02:28:36.536Z,14.70
2023-05-23T02:31:03.130Z,16.63
2023-05-23T02:33:29.711Z,15.77
2023-05-23T02:35:56.225Z,15.83
2023-05-23T02:38:22.755Z,16.27
2023-05-23T02:40:49.345Z,17.73
2023-05-23T02:43:15.899Z,15.83
2023-05-23T02:45:42.832Z,15.40
2023-05-23T02:48:09.828Z,15.63
2023-05-23T02:50:36.596Z,16.90
2023-05-23T02:53:03.125Z,17.53
2023-05-23T02:55:29.700Z,15.17
2023-05-23T02:57:58.408Z,20.70
2023-05-23T03:00:25.254Z,17.70
2023-05-23T03:02:51.904Z,17.00
2023-05-23T03:05:18.700Z,17.20
2023-05-23T03:07:45.242Z,14.73
2023-05-23T03:10:11.819Z,16.33
2023-05-23T03:12:38.367Z,15.57
2023-05-23T03:15:05.464Z,15.87
2023-05-23T03:17:37.195Z,15.27
2023-05-23T03:20:06.977Z,17.13
2023-05-23T03:22:33.467Z,15.10
2023-05-23T03:25:00.000Z,14.90
2023-05-23T03:27:26.583Z,14.40
2023-05-23T03:29:53.115Z,12.93
2023-05-23T03:32:19.630Z,14.70
2023-05-23T03:34:46.236Z,14.50
2023-05-23T03:37:12.781Z,14.77
2023-05-23T03:39:39.998Z,17.43
2023-05-23T03:42:07.282Z,14.40
2023-05-23T03:44:33.781Z,13.50
2023-05-23T03:47:00.323Z,16.67
2023-05-23T03:49:26.831Z,12.93
2023-05-23T03:51:53.428Z,16.13
2023-05-23T03:54:19.945Z,14.10
2023-05-23T03:56:46.472Z,17.67
2023-05-23T03:59:12.951Z,11.57
2023-05-23T04:01:39.466Z,12.23
2023-05-23T04:04:06.113Z,16.30
2023-05-23T04:06:32.723Z,11.30
2023-05-23T04:08:59.277Z,11.43
2023-05-23T04:11:25.801Z,13.30
2023-05-23T04:13:52.341Z,11.57
2023-05-23T04:16:19.167Z,12.27
2023-05-23T04:18:45.821Z,12.50
2023-05-23T04:21:18.372Z,11.53
2023-05-23T04:23:44.966Z,13.10
2023-05-23T04:26:11.744Z,12.17
2023-05-23T04:28:38.316Z,10.87
2023-05-23T04:31:05.045Z,10.83
2023-05-23T04:33:31.875Z,11.13
2023-05-23T04:35:58.461Z,11.10
2023-05-23T04:38:25.268Z,13.33
2023-05-23T04:40:54.199Z,9.73
2023-05-23T04:43:20.762Z,12.33
2023-05-23T04:45:48.011Z,11.20
2023-05-23T04:48:14.576Z,10.27
2023-05-23T04:50:41.120Z,10.53
2023-05-23T04:53:07.705Z,9.77
2023-05-23T04:55:35.382Z,11.47
2023-05-23T04:58:01.980Z,10.20
2023-05-23T05:00:28.502Z,10.87
2023-05-23T05:02:55.150Z,10.40
2023-05-23T05:05:24.866Z,11.37
2023-05-23T05:07:51.558Z,11.18
2023-05-23T05:10:18.064Z,10.83
2023-05-23T05:12:47.854Z,11.57
2023-05-23T05:15:14.509Z,12.80
2023-05-23T05:17:44.543Z,12.23
2023-05-23T05:20:15.915Z,9.83
2023-05-23T05:22:42.508Z,13.03
2023-05-23T05:25:10.270Z,10.73
2023-05-23T05:27:37.206Z,11.17
2023-05-23T05:30:13.044Z,13.87
2023-05-23T05:32:39.577Z,11.03
2023-05-23T05:35:06.604Z,11.47
2023-05-23T05:37:36.149Z,10.70
2023-05-23T05:40:04.338Z,11.07
2023-05-23T05:42:33.866Z,10.23
2023-05-23T05:45:00.619Z,10.88
2023-05-23T05:47:27.254Z,11.00
2023-05-23T05:49:53.794Z,10.70
2023-05-23T05:52:20.386Z,11.00
2023-05-23T05:54:46.892Z,10.93
2023-05-23T05:57:13.473Z,13.60
2023-05-23T05:59:40.036Z,10.33
2023-05-23T06:02:06.736Z,10.90
2023-05-23T06:04:33.311Z,10.40
2023-05-23T06:06:59.938Z,10.67
2023-05-23T06:09:26.493Z,10.67
2023-05-23T06:11:53.011Z,10.37
2023-05-23T06:14:20.152Z,15.27
2023-05-23T06:16:47.416Z,10.60
2023-05-23T06:19:14.228Z,10.57
2023-05-23T06:21:43.321Z,10.87
2023-05-23T06:24:10.150Z,14.73
2023-05-23T06:26:36.725Z,9.70
2023-05-23T06:29:03.531Z,10.73
2023-05-23T06:31:30.140Z,7.90
2023-05-23T06:33:56.845Z,9.67
2023-05-23T06:36:23.959Z,9.53
2023-05-23T06:38:52.400Z,7.85
2023-05-23T06:41:18.981Z,7.50
2023-05-23T06:43:46.505Z,10.23
2023-05-23T06:46:13.160Z,8.70
2023-05-23T06:48:39.973Z,7.87
2023-05-23T06:51:06.575Z,7.40
2023-05-23T06:53:33.115Z,7.03
2023-05-23T06:55:59.785Z,11.37
2023-05-23T06:58:26.356Z,6.53
2023-05-23T07:00:52.881Z,8.40
2023-05-23T07:03:19.451Z,6.83
2023-05-23T07:05:46.020Z,7.00
2023-05-23T07:08:12.618Z,9.33
2023-05-23T07:10:39.321Z,9.73
2023-05-23T07:13:06.108Z,8.90
2023-05-23T07:15:32.643Z,15.90
2023-05-23T07:17:59.297Z,7.73
2023-05-23T07:20:27.638Z,8.10
2023-05-23T07:22:54.149Z,9.63
2023-05-23T07:25:20.654Z,6.70
2023-05-23T07:27:47.440Z,9.47
2023-05-23T07:30:14.006Z,7.50
2023-05-23T07:32:40.579Z,8.80
2023-05-23T07:35:07.426Z,14.47
2023-05-23T07:37:33.999Z,6.63
2023-05-23T07:40:01.611Z,9.50
2023-05-23T07:42:28.107Z,7.77
2023-05-23T07:44:54.612Z,6.10
2023-05-23T07:47:23.304Z,6.03
2023-05-23T07:49:50.488Z,6.25
2023-05-23T07:52:17.041Z,5.80
2023-05-23T07:54:43.630Z,7.00
2023-05-23T07:57:10.297Z,8.20
2023-05-23T07:59:36.903Z,7.07
2023-05-23T08:02:03.691Z,9.60
2023-05-23T08:04:30.816Z,7.50
2023-05-23T08:07:05.392Z,7.37
2023-05-23T08:09:33.899Z,8.13
2023-05-23T08:12:00.884Z,8.03
2023-05-23T08:14:42.393Z,9.07
2023-05-23T08:17:14.583Z,7.67
2023-05-23T08:19:41.301Z,11.70
2023-05-23T08:22:07.851Z,7.73
2023-05-23T08:24:34.386Z,10.27
2023-05-23T08:27:01.004Z,5.87
2023-05-23T08:29:27.514Z,6.50
2023-05-23T08:31:54.089Z,6.83
2023-05-23T08:34:20.635Z,7.40
2023-05-23T08:36:47.197Z,7.00
2023-05-23T08:39:14.294Z,6.23
2023-05-23T08:41:40.943Z,6.63
2023-05-23T08:44:07.459Z,6.50
2023-05-23T08:46:34.298Z,10.17
2023-05-23T08:49:00.880Z,7.00
2023-05-23T08:51:28.057Z,8.97
2023-05-23T08:53:54.935Z,9.60
2023-05-23T08:56:21.722Z,10.00
2023-05-23T08:58:48.377Z,10.93
2023-05-23T09:01:15.345Z,15.47
2023-05-23T09:03:41.999Z,13.47
2023-05-23T09:06:09.474Z,6.30
2023-05-23T09:08:36.482Z,6.90
2023-05-23T09:11:04.258Z,8.40
2023-05-23T09:13:34.042Z,6.40
2023-05-23T09:16:05.496Z,6.97
2023-05-23T09:18:37.869Z,7.30
2023-05-23T09:21:04.906Z,6.80
2023-05-23T09:23:32.316Z,7.13
2023-05-23T09:26:06.686Z,7.27
2023-05-23T09:28:34.108Z,9.87
2023-05-23T09:31:01.625Z,12.83
2023-05-23T09:33:43.635Z,9.83
2023-05-23T09:36:10.186Z,9.93
2023-05-23T09:38:41.355Z,9.77
2023-05-23T09:41:08.144Z,13.73
2023-05-23T09:43:34.753Z,9.27
2023-05-23T09:46:07.454Z,9.53
2023-05-23T09:48:34.020Z,9.80
2023-05-23T09:51:04.272Z,9.77
2023-05-23T09:53:30.888Z,10.50
2023-05-23T09:55:59.195Z,9.80
2023-05-23T09:58:28.022Z,8.23
2023-05-23T10:00:56.675Z,8.98
2023-05-23T10:03:27.636Z,12.52
2023-05-23T10:05:58.007Z,11.03
2023-05-23T10:08:30.461Z,8.57
2023-05-23T10:10:57.061Z,12.20
2023-05-23T10:13:27.969Z,11.27
2023-05-23T10:16:01.248Z,10.23
2023-05-23T10:18:30.100Z,9.63
2023-05-23T10:20:57.970Z,10.55
2023-05-23T10:23:24.567Z,10.17
2023-05-23T10:25:51.548Z,10.20
2023-05-23T10:28:18.424Z,9.17
2023-05-23T10:30:45.702Z,9.87
2023-05-23T10:33:14.364Z,8.30
2023-05-23T10:36:02.788Z,9.25
2023-05-23T10:38:42.582Z,8.15
2023-05-23T10:41:32.953Z,7.10
2023-05-23T10:44:27.619Z,8.33
2023-05-23T10:46:56.136Z,7.20
2023-05-23T10:49:41.134Z,4.43
2023-05-23T10:52:08.923Z,6.73
2023-05-23T10:54:37.041Z,6.00
2023-05-23T10:57:04.767Z,6.80
2023-05-23T10:59:31.470Z,7.70
2023-05-23T11:01:58.439Z,7.73
2023-05-23T11:04:26.238Z,5.57
2023-05-23T11:06:54.011Z,5.73
2023-05-23T11:09:20.897Z,5.17
2023-05-23T11:12:00.281Z,5.50
2023-05-23T11:17:20.069Z,5.37
2023-05-23T11:19:58.847Z,9.93
2023-05-23T11:22:29.157Z,6.15
2023-05-23T11:24:57.551Z,7.50
2023-05-23T11:27:37.817Z,6.70
2023-05-23T11:30:11.338Z,8.57
2023-05-23T11:32:38.046Z,6.53
2023-05-23T11:35:06.433Z,6.23
2023-05-23T11:37:33.268Z,8.27
2023-05-23T11:40:28.473Z,8.90
2023-05-23T11:42:55.547Z,6.77
2023-05-23T11:45:25.968Z,6.47
2023-05-23T11:47:53.251Z,7.10
2023-05-23T11:50:19.983Z,7.37
2023-05-23T11:52:47.198Z,8.00
2023-05-23T11:55:13.840Z,6.07
2023-05-23T11:57:40.393Z,7.53
2023-05-23T12:00:08.314Z,6.87
2023-05-23T12:02:42.810Z,6.47
2023-05-23T12:05:14.035Z,6.60
2023-05-23T12:07:44.069Z,6.13
2023-05-23T12:10:11.716Z,5.40
2023-05-23T12:12:38.941Z,6.70
2023-05-23T12:15:05.983Z,6.17
2023-05-23T12:17:32.669Z,6.10
2023-05-23T12:19:59.698Z,5.77
2023-05-23T12:22:28.048Z,4.97
2023-05-23T12:24:55.410Z,6.80
2023-05-23T12:27:34.470Z,6.10
2023-05-23T12:30:11.266Z,7.63
2023-05-23T12:32:42.177Z,8.33
2023-05-23T12:35:10.170Z,7.37
2023-05-23T12:37:41.171Z,8.17
2023-05-23T12:40:15.073Z,8.17
2023-05-23T12:42:51.927Z,6.90
2023-05-23T12:45:19.894Z,7.43
2023-05-23T12:47:46.497Z,6.73
2023-05-23T12:50:13.057Z,6.40
2023-05-23T12:52:40.082Z,9.20
2023-05-23T12:55:07.944Z,7.80
2023-05-23T12:57:35.111Z,5.43
2023-05-23T13:00:01.845Z,6.10
2023-05-23T13:02:28.747Z,5.53
2023-05-23T13:04:55.379Z,8.77
2023-05-23T13:07:22.787Z,8.03
2023-05-23T13:09:49.490Z,6.33
2023-05-23T13:12:16.034Z,8.10
2023-05-23T13:14:42.568Z,8.93
2023-05-23T13:17:09.137Z,12.37
2023-05-23T13:19:35.765Z,8.37
2023-05-23T13:22:02.869Z,7.73
2023-05-23T13:24:29.345Z,6.90
2023-05-23T13:26:57.284Z,8.70
2023-05-23T13:29:23.933Z,8.17
2023-05-23T13:31:50.465Z,8.53
2023-05-23T13:34:18.024Z,8.67
2023-05-23T13:36:44.640Z,7.60
2023-05-23T13:39:11.194Z,7.83
2023-05-23T13:41:37.807Z,8.40
2023-05-23T13:44:04.343Z,9.27
2023-05-23T13:46:30.977Z,7.63
2023-05-23T13:48:57.572Z,11.50
2023-05-23T13:51:24.132Z,7.20
2023-05-23T13:53:50.639Z,8.50
2023-05-23T13:56:17.162Z,6.93
2023-05-23T13:58:48.746Z,7.53
2023-05-23T14:01:15.540Z,7.93
2023-05-23T14:03:45.029Z,9.40
2023-05-23T14:06:11.821Z,6.97
2023-05-23T14:08:38.446Z,8.57
2023-05-23T14:11:05.038Z,7.37
2023-05-23T14:13:31.791Z,7.93
2023-05-23T14:15:58.343Z,7.73
2023-05-23T14:18:24.922Z,5.93
2023-05-23T14:20:51.486Z,8.50
2023-05-23T14:23:18.923Z,6.70
2023-05-23T14:25:45.641Z,8.07
2023-05-23T14:28:13.645Z,8.83
2023-05-23T14:30:40.209Z,7.67
2023-05-23T14:33:09.962Z,7.57
2023-05-23T14:35:37.521Z,7.70
2023-05-23T14:38:04.033Z,7.93
2023-05-23T14:40:30.556Z,12.77
2023-05-23T14:42:57.083Z,9.67
2023-05-23T14:45:23.666Z,11.13
2023-05-23T14:47:50.337Z,6.70
2023-05-23T14:50:19.044Z,7.33
2023-05-23T14:52:45.580Z,6.45
2023-05-23T14:55:12.118Z,7.03
2023-05-23T14:57:39.427Z,7.17
2023-05-23T15:00:06.866Z,8.10
2023-05-23T15:02:33.700Z,6.37
2023-05-23T15:05:00.316Z,7.13
2023-05-23T15:07:28.580Z,6.30
2023-05-23T15:09:55.271Z,6.27
2023-05-23T15:12:22.166Z,6.57
2023-05-23T15:14:49.296Z,7.33
2023-05-23T15:17:16.350Z,6.77
2023-05-23T15:19:43.326Z,7.67
2023-05-23T15:22:18.799Z,5.83
2023-05-23T15:24:49.113Z,6.65
2023-05-23T15:27:20.571Z,7.57
2023-05-23T15:29:48.197Z,9.30
2023-05-23T15:32:14.838Z,6.97
2023-05-23T15:34:41.439Z,10.23
2023-05-23T15:37:07.948Z,7.27
2023-05-23T15:39:34.544Z,6.83
2023-05-23T15:42:01.084Z,7.60
2023-05-23T15:44:27.621Z,6.17
2023-05-23T15:46:54.354Z,6.13
2023-05-23T15:49:26.664Z,6.30
2023-05-23T15:51:53.974Z,9.57
2023-05-23T15:54:20.514Z,7.43
2023-05-23T15:56:47.515Z,6.07
2023-05-23T15:59:16.083Z,6.50
2023-05-23T16:01:42.639Z,6.70
2023-05-23T16:04:11.907Z,8.20
2023-05-23T16:06:41.809Z,8.05
2023-05-23T16:09:08.455Z,9.17
2023-05-23T16:11:34.991Z,10.63
2023-05-23T16:14:01.512Z,8.97
2023-05-23T16:16:28.073Z,8.10
2023-05-23T16:18:55.462Z,7.53
2023-05-23T16:21:21.986Z,10.17
2023-05-23T16:23:48.972Z,10.27
2023-05-23T16:26:16.789Z,10.47
2023-05-23T16:28:45.916Z,10.17
2023-05-23T16:31:16.233Z,8.27
2023-05-23T16:33:43.463Z,9.57
2023-05-23T16:36:10.309Z,9.43
2023-05-23T16:38:38.197Z,8.80
2023-05-23T16:41:06.012Z,8.15
2023-05-23T16:43:33.835Z,9.00
2023-05-23T16:46:00.591Z,9.33
2023-05-23T16:48:27.319Z,10.87
2023-05-23T16:50:54.885Z,9.90
2023-05-23T16:53:21.914Z,13.63
2023-05-23T16:55:50.370Z,12.30
2023-05-23T16:58:20.020Z,15.23
2023-05-23T17:00:47.801Z,11.83
2023-05-23T17:03:14.555Z,12.63
2023-05-23T17:05:41.360Z,12.80
2023-05-23T17:08:08.181Z,12.20
2023-05-23T17:10:35.193Z,13.20
2023-05-23T17:13:01.931Z,12.77
2023-05-23T17:15:31.658Z,12.53
2023-05-23T17:17:58.322Z,13.23
2023-05-23T17:20:24.870Z,13.37
2023-05-23T17:22:51.448Z,15.07
2023-05-23T17:25:17.996Z,12.53
2023-05-23T17:27:44.516Z,13.83
2023-05-23T17:30:11.813Z,14.33
2023-05-23T17:32:38.497Z,14.83
2023-05-23T17:35:05.484Z,14.30
2023-05-23T17:37:32.147Z,16.07
2023-05-23T17:39:58.806Z,16.47
2023-05-23T17:42:25.521Z,16.77
2023-05-23T17:44:52.194Z,14.97
2023-05-23T17:47:18.821Z,18.20
2023-05-23T17:49:45.331Z,15.10
2023-05-23T17:52:12.209Z,15.20
2023-05-23T17:54:39.004Z,17.27
2023-05-23T17:57:05.840Z,16.27
2023-05-23T17:59:32.429Z,18.43
2023-05-23T18:01:59.126Z,17.93
2023-05-23T18:04:26.846Z,20.37
2023-05-23T18:06:53.428Z,17.13
2023-05-23T18:09:19.943Z,21.40
2023-05-23T18:11:47.562Z,16.87
2023-05-23T18:14:14.127Z,18.43
2023-05-23T18:16:40.826Z,18.57
2023-05-23T18:19:08.425Z,17.80
2023-05-23T18:21:37.329Z,17.13
2023-05-23T18:24:04.109Z,15.85
2023-05-23T18:26:30.655Z,18.90
2023-05-23T18:28:57.186Z,17.57
2023-05-23T18:31:23.757Z,19.03
2023-05-23T18:33:50.428Z,17.67
2023-05-23T18:36:17.031Z,20.00
2023-05-23T18:38:43.937Z,16.57
2023-05-23T18:41:14.726Z,15.82
2023-05-23T18:43:46.015Z,16.88
2023-05-23T18:46:12.696Z,17.23
2023-05-23T18:48:39.250Z,16.63
2023-05-23T18:51:08.892Z,15.83
2023-05-23T18:53:40.123Z,17.33
2023-05-23T18:56:08.059Z,16.80
2023-05-23T18:58:34.563Z,15.70
2023-05-23T19:01:01.132Z,17.67
2023-05-23T19:03:27.805Z,14.67
2023-05-23T19:05:54.426Z,15.70
2023-05-23T19:08:20.975Z,14.27
2023-05-23T19:10:47.515Z,15.33
2023-05-23T19:13:14.034Z,15.27
2023-05-23T19:15:43.227Z,13.90
2023-05-23T19:18:10.004Z,14.50
2023-05-23T19:20:36.609Z,16.00
2023-05-23T19:23:03.564Z,12.47
2023-05-23T19:25:30.319Z,16.47
2023-05-23T19:27:56.836Z,12.43
2023-05-23T19:30:24.206Z,13.07
2023-05-23T19:32:50.755Z,17.50
2023-05-23T19:35:17.747Z,13.50
2023-05-23T19:37:44.604Z,15.33
2023-05-23T19:40:11.645Z,13.97
2023-05-23T19:42:38.226Z,12.63
2023-05-23T19:45:05.369Z,12.87
2023-05-23T19:47:32.050Z,13.90
2023-05-23T19:49:58.871Z,13.27
2023-05-23T19:52:27.089Z,13.60
2023-05-23T19:54:53.950Z,14.67
2023-05-23T19:57:20.661Z,15.17
2023-05-23T19:59:47.517Z,15.33
2023-05-23T20:02:16.381Z,14.07
2023-05-23T20:04:44.647Z,16.10
2023-05-23T20:07:11.392Z,14.70
2023-05-23T20:09:38.178Z,14.23
2023-05-23T20:12:04.886Z,14.57
2023-05-23T20:14:32.024Z,13.93
2023-05-23T20:16:58.756Z,15.07
2023-05-23T20:19:29.842Z,14.53
2023-05-23T20:21:59.216Z,14.50
2023-05-23T20:24:28.252Z,14.43
2023-05-23T20:26:54.803Z,13.65
2023-05-23T20:29:21.365Z,13.47
2023-05-23T20:31:47.934Z,13.67
2023-05-23T20:34:16.839Z,14.43
2023-05-23T20:36:43.338Z,13.43
2023-05-23T20:39:10.184Z,13.10
2023-05-23T20:41:36.856Z,13.20
2023-05-23T20:44:03.418Z,13.27
2023-05-23T20:46:30.064Z,13.30
2023-05-23T20:48:57.113Z,13.77
2023-05-23T20:51:23.680Z,16.63
2023-05-23T20:53:51.410Z,15.27
2023-05-23T20:56:18.017Z,17.70
2023-05-23T20:58:44.576Z,17.37
2023-05-23T21:01:11.151Z,13.70
2023-05-23T21:03:37.712Z,15.40
2023-05-23T21:06:04.324Z,14.37
2023-05-23T21:08:33.730Z,13.20
2023-05-23T21:11:01.233Z,13.00
2023-05-23T21:13:27.772Z,14.97
2023-05-23T21:15:54.307Z,13.97
2023-05-23T21:18:20.903Z,11.47
2023-05-23T21:20:47.437Z,15.03
2023-05-23T21:23:13.932Z,14.77
2023-05-23T21:25:40.565Z,11.80
2023-05-23T21:28:07.117Z,11.97
2023-05-23T21:30:33.913Z,11.77
2023-05-23T21:33:00.489Z,11.07
2023-05-23T21:35:27.041Z,14.17
2023-05-23T21:37:53.886Z,11.83
2023-05-23T21:40:20.518Z,11.43
2023-05-23T21:42:47.093Z,11.70
2023-05-23T21:45:13.609Z,11.70
2023-05-23T21:47:40.245Z,14.40
2023-05-23T21:50:07.473Z,11.40
2023-05-23T21:52:34.292Z,11.80
2023-05-23T21:55:00.930Z,14.80
2023-05-23T21:57:28.481Z,15.83
2023-05-23T21:59:55.050Z,18.50
2023-05-23T22:02:21.593Z,12.37
2023-05-23T22:04:48.118Z,13.07
2023-05-23T22:07:14.669Z,12.83
2023-05-23T22:09:41.233Z,12.53
2023-05-23T22:12:07.902Z,11.73
2023-05-23T22:14:34.463Z,15.07
2023-05-23T22:17:01.030Z,12.63
2023-05-23T22:19:27.761Z,14.70
2023-05-23T22:21:54.364Z,13.40
2023-05-23T22:24:21.046Z,14.57
2023-05-23T22:26:47.580Z,16.23
2023-05-23T22:29:14.127Z,17.57
2023-05-23T22:31:40.710Z,13.40
2023-05-23T22:34:07.289Z,14.87
2023-05-23T22:36:33.829Z,14.73
2023-05-23T22:39:00.352Z,14.57
2023-05-23T22:41:26.863Z,15.10
2023-05-23T22:43:53.428Z,13.00
2023-05-23T22:46:20.108Z,13.97
2023-05-23T22:48:46.657Z,13.53
2023-05-23T22:51:13.232Z,13.60
2023-05-23T22:53:39.888Z,15.37
2023-05-23T22:56:06.770Z,13.60
2023-05-23T22:58:33.350Z,12.73
2023-05-23T23:00:59.924Z,13.43
2023-05-23T23:03:26.880Z,12.03
2023-05-23T23:05:53.612Z,12.70
2023-05-23T23:08:23.347Z,12.80
2023-05-23T23:10:49.969Z,13.55
2023-05-23T23:13:16.814Z,14.50
2023-05-23T23:15:43.410Z,13.43
2023-05-23T23:18:10.055Z,12.90
2023-05-23T23:20:36.808Z,12.60
2023-05-23T23:23:03.676Z,12.57
2023-05-23T23:25:30.354Z,13.03
2023-05-23T23:27:56.997Z,12.67
2023-05-23T23:30:25.023Z,12.70
2023-05-23T23:32:51.622Z,14.03
2023-05-23T23:35:18.164Z,12.27
2023-05-23T23:37:44.701Z,13.33
2023-05-23T23:40:11.809Z,12.33
2023-05-23T23:42:38.456Z,15.93
2023-05-23T23:45:05.470Z,13.77
2023-05-23T23:47:32.487Z,12.47
2023-05-23T23:49:59.180Z,12.47
2023-05-23T23:52:25.756Z,11.17
2023-05-23T23:54:52.384Z,13.47
2023-05-23T23:57:21.917Z,10.63
2023-05-23T23:59:48.659Z,12.27
